sensor_id;sensor_type;location;lat;lon;timestamp;temperature;humidity
19279;DHT22;9773;47.062;15.446;2023-12-04T00:01:50;-2.90;99.90
19279;DHT22;9773;47.062;15.446;2023-12-04T00:04:19;-2.90;99.90
19279;DHT22;9773;47.062;15.446;2023-12-04T00:06:44;-2.90;99.90
19279;DHT22;9773;47.062;15.446;2023-12-04T00:09:10;-2.90;99.90
19279;DHT22;9773;47.062;15.446;2023-12-04T00:11:36;-2.90;99.90
19279;DHT22;9773;47.062;15.446;2023-12-04T00:14:02;-3.00;99.90
19279;DHT22;9773;47.062;15.446;2023-12-04T00:16:27;-3.00;99.90
19279;DHT22;9773;47.062;15.446;2023-12-04T00:18:53;-3.10;99.90
19279;DHT22;9773;47.062;15.446;2023-12-04T00:21:19;-3.00;99.90
19279;DHT22;9773;47.062;15.446;2023-12-04T00:23:45;-2.80;99.90
19279;DHT22;9773;47.062;15.446;2023-12-04T00:26:12;-2.80;99.90
19279;DHT22;9773;47.062;15.446;2023-12-04T00:28:38;-2.80;99.90
19279;DHT22;9773;47.062;15.446;2023-12-04T00:31:04;-2.80;99.90
19279;DHT22;9773;47.062;15.446;2023-12-04T00:33:30;-2.80;99.90
19279;DHT22;9773;47.062;15.446;2023-12-04T00:35:57;-2.90;99.90
19279;DHT22;9773;47.062;15.446;2023-12-04T00:38:22;-3.00;99.90
19279;DHT22;9773;47.062;15.446;2023-12-04T00:40:48;-3.10;99.90
19279;DHT22;9773;47.062;15.446;2023-12-04T00:43:14;-3.00;99.90
19279;DHT22;9773;47.062;15.446;2023-12-04T00:45:40;-2.90;99.90
19279;DHT22;9773;47.062;15.446;2023-12-04T00:48:05;-3.00;99.90
19279;DHT22;9773;47.062;15.446;2023-12-04T00:50:31;-3.10;99.90
19279;DHT22;9773;47.062;15.446;2023-12-04T00:52:57;-3.10;99.90
19279;DHT22;9773;47.062;15.446;2023-12-04T00:55:23;-3.10;99.90
19279;DHT22;9773;47.062;15.446;2023-12-04T00:57:48;-3.10;99.90
19279;DHT22;9773;47.062;15.446;2023-12-04T01:00:15;-3.00;99.90
19279;DHT22;9773;47.062;15.446;2023-12-04T01:02:41;-2.90;99.90
19279;DHT22;9773;47.062;15.446;2023-12-04T01:05:08;-2.90;99.90
19279;DHT22;9773;47.062;15.446;2023-12-04T01:07:34;-2.80;99.90
19279;DHT22;9773;47.062;15.446;2023-12-04T01:09:59;-2.80;99.90
19279;DHT22;9773;47.062;15.446;2023-12-04T01:12:25;-2.70;99.90
19279;DHT22;9773;47.062;15.446;2023-12-04T01:14:52;-2.80;99.90
19279;DHT22;9773;47.062;15.446;2023-12-04T01:17:18;-2.90;99.90
19279;DHT22;9773;47.062;15.446;2023-12-04T01:19:43;-2.90;99.90
19279;DHT22;9773;47.062;15.446;2023-12-04T01:22:11;-3.00;99.90
19279;DHT22;9773;47.062;15.446;2023-12-04T01:24:37;-3.00;99.90
19279;DHT22;9773;47.062;15.446;2023-12-04T01:27:03;-3.20;99.90
19279;DHT22;9773;47.062;15.446;2023-12-04T01:29:29;-3.10;99.90
19279;DHT22;9773;47.062;15.446;2023-12-04T01:31:57;-3.20;99.90
19279;DHT22;9773;47.062;15.446;2023-12-04T01:34:23;-3.20;99.90
19279;DHT22;9773;47.062;15.446;2023-12-04T01:36:48;-3.20;99.90
19279;DHT22;9773;47.062;15.446;2023-12-04T01:39:14;-3.30;99.90
19279;DHT22;9773;47.062;15.446;2023-12-04T01:41:40;-3.30;99.90
19279;DHT22;9773;47.062;15.446;2023-12-04T01:44:06;-3.30;99.90
19279;DHT22;9773;47.062;15.446;2023-12-04T01:46:31;-3.40;99.90
19279;DHT22;9773;47.062;15.446;2023-12-04T01:48:58;-3.40;99.90
19279;DHT22;9773;47.062;15.446;2023-12-04T01:51:25;-3.30;99.90
19279;DHT22;9773;47.062;15.446;2023-12-04T01:53:51;-3.20;99.90
19279;DHT22;9773;47.062;15.446;2023-12-04T01:56:19;-2.90;99.90
19279;DHT22;9773;47.062;15.446;2023-12-04T01:58:46;-2.90;99.90
19279;DHT22;9773;47.062;15.446;2023-12-04T02:01:12;-2.80;99.90
19279;DHT22;9773;47.062;15.446;2023-12-04T02:03:37;-2.90;99.90
19279;DHT22;9773;47.062;15.446;2023-12-04T02:06:04;-3.10;99.90
19279;DHT22;9773;47.062;15.446;2023-12-04T02:08:31;-3.00;99.90
19279;DHT22;9773;47.062;15.446;2023-12-04T02:10:56;-3.00;99.90
19279;DHT22;9773;47.062;15.446;2023-12-04T02:13:22;-3.10;99.90
19279;DHT22;9773;47.062;15.446;2023-12-04T02:15:52;-3.10;99.90
19279;DHT22;9773;47.062;15.446;2023-12-04T02:18:19;-3.10;99.90
19279;DHT22;9773;47.062;15.446;2023-12-04T02:20:44;-3.10;99.90
19279;DHT22;9773;47.062;15.446;2023-12-04T02:23:10;-3.20;99.90
19279;DHT22;9773;47.062;15.446;2023-12-04T02:25:36;-3.20;99.90
19279;DHT22;9773;47.062;15.446;2023-12-04T02:28:05;-3.30;99.90
19279;DHT22;9773;47.062;15.446;2023-12-04T02:30:32;-3.40;99.90
19279;DHT22;9773;47.062;15.446;2023-12-04T02:33:04;-3.60;99.90
19279;DHT22;9773;47.062;15.446;2023-12-04T02:35:32;-3.50;99.90
19279;DHT22;9773;47.062;15.446;2023-12-04T02:37:59;-3.40;99.90
19279;DHT22;9773;47.062;15.446;2023-12-04T02:40:25;-3.50;99.90
19279;DHT22;9773;47.062;15.446;2023-12-04T02:42:51;-3.50;99.90
19279;DHT22;9773;47.062;15.446;2023-12-04T02:45:17;-3.50;99.90
19279;DHT22;9773;47.062;15.446;2023-12-04T02:47:43;-3.50;99.90
19279;DHT22;9773;47.062;15.446;2023-12-04T02:50:09;-3.50;99.90
19279;DHT22;9773;47.062;15.446;2023-12-04T02:52:35;-3.50;99.90
19279;DHT22;9773;47.062;15.446;2023-12-04T02:55:01;-3.50;99.90
19279;DHT22;9773;47.062;15.446;2023-12-04T02:57:26;-3.70;99.90
19279;DHT22;9773;47.062;15.446;2023-12-04T02:59:53;-3.70;99.90
19279;DHT22;9773;47.062;15.446;2023-12-04T03:02:18;-3.70;99.90
19279;DHT22;9773;47.062;15.446;2023-12-04T03:04:45;-3.70;99.90
19279;DHT22;9773;47.062;15.446;2023-12-04T03:07:11;-3.60;99.90
19279;DHT22;9773;47.062;15.446;2023-12-04T03:09:37;-3.50;99.90
19279;DHT22;9773;47.062;15.446;2023-12-04T03:12:03;-3.50;99.90
19279;DHT22;9773;47.062;15.446;2023-12-04T03:14:29;-3.50;99.90
19279;DHT22;9773;47.062;15.446;2023-12-04T03:16:54;-3.60;99.90
19279;DHT22;9773;47.062;15.446;2023-12-04T03:19:20;-3.60;99.90
19279;DHT22;9773;47.062;15.446;2023-12-04T03:21:46;-3.70;99.90
19279;DHT22;9773;47.062;15.446;2023-12-04T03:24:12;-3.70;99.90
19279;DHT22;9773;47.062;15.446;2023-12-04T03:26:37;-3.90;99.90
19279;DHT22;9773;47.062;15.446;2023-12-04T03:29:03;-4.00;99.90
19279;DHT22;9773;47.062;15.446;2023-12-04T03:31:29;-3.90;99.90
19279;DHT22;9773;47.062;15.446;2023-12-04T03:33:57;-4.00;99.90
19279;DHT22;9773;47.062;15.446;2023-12-04T03:36:22;-4.00;99.90
19279;DHT22;9773;47.062;15.446;2023-12-04T03:38:48;-4.10;99.90
19279;DHT22;9773;47.062;15.446;2023-12-04T03:41:16;-4.20;99.90
19279;DHT22;9773;47.062;15.446;2023-12-04T03:43:42;-4.20;99.90
19279;DHT22;9773;47.062;15.446;2023-12-04T03:46:08;-4.30;99.90
19279;DHT22;9773;47.062;15.446;2023-12-04T03:48:34;-4.20;99.90
19279;DHT22;9773;47.062;15.446;2023-12-04T03:51:00;-4.20;99.90
19279;DHT22;9773;47.062;15.446;2023-12-04T03:53:26;-4.20;99.90
19279;DHT22;9773;47.062;15.446;2023-12-04T03:55:52;-4.20;99.90
19279;DHT22;9773;47.062;15.446;2023-12-04T03:58:18;-4.00;99.90
19279;DHT22;9773;47.062;15.446;2023-12-04T04:00:44;-4.10;99.90
19279;DHT22;9773;47.062;15.446;2023-12-04T04:03:10;-4.10;99.90
19279;DHT22;9773;47.062;15.446;2023-12-04T04:05:36;-4.20;99.90
19279;DHT22;9773;47.062;15.446;2023-12-04T04:08:02;-4.10;99.90
19279;DHT22;9773;47.062;15.446;2023-12-04T04:10:28;-4.10;99.90
19279;DHT22;9773;47.062;15.446;2023-12-04T04:12:54;-4.10;99.90
19279;DHT22;9773;47.062;15.446;2023-12-04T04:15:20;-4.20;99.90
19279;DHT22;9773;47.062;15.446;2023-12-04T04:17:45;-4.30;99.90
19279;DHT22;9773;47.062;15.446;2023-12-04T04:20:11;-4.30;99.90
19279;DHT22;9773;47.062;15.446;2023-12-04T04:22:38;-4.30;99.90
19279;DHT22;9773;47.062;15.446;2023-12-04T04:25:07;-4.30;99.90
19279;DHT22;9773;47.062;15.446;2023-12-04T04:27:33;-4.20;99.90
19279;DHT22;9773;47.062;15.446;2023-12-04T04:29:59;-4.30;99.90
19279;DHT22;9773;47.062;15.446;2023-12-04T04:32:25;-4.30;99.90
19279;DHT22;9773;47.062;15.446;2023-12-04T04:34:51;-4.30;99.90
19279;DHT22;9773;47.062;15.446;2023-12-04T04:37:17;-4.20;99.90
19279;DHT22;9773;47.062;15.446;2023-12-04T04:39:43;-4.10;99.90
19279;DHT22;9773;47.062;15.446;2023-12-04T04:42:08;-4.10;99.90
19279;DHT22;9773;47.062;15.446;2023-12-04T04:44:34;-4.30;99.90
19279;DHT22;9773;47.062;15.446;2023-12-04T04:47:00;-4.20;99.90
19279;DHT22;9773;47.062;15.446;2023-12-04T04:49:26;-4.10;99.90
19279;DHT22;9773;47.062;15.446;2023-12-04T04:51:52;-4.20;99.90
19279;DHT22;9773;47.062;15.446;2023-12-04T04:54:17;-4.10;99.90
19279;DHT22;9773;47.062;15.446;2023-12-04T04:56:43;-4.20;99.90
19279;DHT22;9773;47.062;15.446;2023-12-04T04:59:09;-4.30;99.90
19279;DHT22;9773;47.062;15.446;2023-12-04T05:01:34;-4.20;99.90
19279;DHT22;9773;47.062;15.446;2023-12-04T05:04:00;-4.20;99.90
19279;DHT22;9773;47.062;15.446;2023-12-04T05:06:26;-4.30;99.90
19279;DHT22;9773;47.062;15.446;2023-12-04T05:08:52;-4.30;99.90
19279;DHT22;9773;47.062;15.446;2023-12-04T05:11:18;-4.30;99.90
19279;DHT22;9773;47.062;15.446;2023-12-04T05:13:48;-4.20;99.90
19279;DHT22;9773;47.062;15.446;2023-12-04T05:16:14;-4.30;99.90
19279;DHT22;9773;47.062;15.446;2023-12-04T05:18:40;-4.30;99.90
19279;DHT22;9773;47.062;15.446;2023-12-04T05:21:12;-4.20;99.90
19279;DHT22;9773;47.062;15.446;2023-12-04T05:23:38;-4.30;99.90
19279;DHT22;9773;47.062;15.446;2023-12-04T05:26:05;-4.20;99.90
19279;DHT22;9773;47.062;15.446;2023-12-04T05:28:31;-4.20;99.90
19279;DHT22;9773;47.062;15.446;2023-12-04T05:30:56;-4.20;99.90
19279;DHT22;9773;47.062;15.446;2023-12-04T05:33:22;-4.00;99.90
19279;DHT22;9773;47.062;15.446;2023-12-04T05:35:48;-4.10;99.90
19279;DHT22;9773;47.062;15.446;2023-12-04T05:38:16;-4.10;99.90
19279;DHT22;9773;47.062;15.446;2023-12-04T05:40:42;-4.10;99.90
19279;DHT22;9773;47.062;15.446;2023-12-04T05:43:08;-4.20;99.90
19279;DHT22;9773;47.062;15.446;2023-12-04T05:45:33;-4.10;99.90
19279;DHT22;9773;47.062;15.446;2023-12-04T05:47:59;-4.30;99.90
19279;DHT22;9773;47.062;15.446;2023-12-04T05:50:25;-4.20;99.90
19279;DHT22;9773;47.062;15.446;2023-12-04T05:52:51;-4.30;99.90
19279;DHT22;9773;47.062;15.446;2023-12-04T05:55:17;-4.30;99.90
19279;DHT22;9773;47.062;15.446;2023-12-04T05:57:43;-4.20;99.90
19279;DHT22;9773;47.062;15.446;2023-12-04T06:00:09;-4.00;99.90
19279;DHT22;9773;47.062;15.446;2023-12-04T06:02:42;-3.90;99.90
19279;DHT22;9773;47.062;15.446;2023-12-04T06:05:08;-3.90;99.90
19279;DHT22;9773;47.062;15.446;2023-12-04T06:07:35;-3.80;99.90
19279;DHT22;9773;47.062;15.446;2023-12-04T06:10:02;-3.80;99.90
19279;DHT22;9773;47.062;15.446;2023-12-04T06:12:30;-4.00;99.90
19279;DHT22;9773;47.062;15.446;2023-12-04T06:14:56;-4.20;99.90
19279;DHT22;9773;47.062;15.446;2023-12-04T06:17:24;-4.20;99.90
19279;DHT22;9773;47.062;15.446;2023-12-04T06:19:50;-4.30;99.90
19279;DHT22;9773;47.062;15.446;2023-12-04T06:22:16;-4.30;99.90
19279;DHT22;9773;47.062;15.446;2023-12-04T06:24:44;-4.30;99.90
19279;DHT22;9773;47.062;15.446;2023-12-04T06:27:13;-4.30;99.90
19279;DHT22;9773;47.062;15.446;2023-12-04T06:29:40;-4.30;99.90
19279;DHT22;9773;47.062;15.446;2023-12-04T06:32:06;-4.20;99.90
19279;DHT22;9773;47.062;15.446;2023-12-04T06:34:33;-4.40;99.90
19279;DHT22;9773;47.062;15.446;2023-12-04T06:37:00;-4.30;99.90
19279;DHT22;9773;47.062;15.446;2023-12-04T06:39:32;-4.20;99.90
19279;DHT22;9773;47.062;15.446;2023-12-04T06:41:58;-4.10;99.90
19279;DHT22;9773;47.062;15.446;2023-12-04T06:44:24;-4.10;99.90
19279;DHT22;9773;47.062;15.446;2023-12-04T06:46:52;-4.20;99.90
19279;DHT22;9773;47.062;15.446;2023-12-04T06:49:18;-4.20;99.90
19279;DHT22;9773;47.062;15.446;2023-12-04T06:51:44;-4.40;99.90
19279;DHT22;9773;47.062;15.446;2023-12-04T06:54:10;-4.30;99.90
19279;DHT22;9773;47.062;15.446;2023-12-04T06:56:38;-4.20;99.90
19279;DHT22;9773;47.062;15.446;2023-12-04T06:59:04;-3.90;99.90
19279;DHT22;9773;47.062;15.446;2023-12-04T07:01:29;-3.50;99.90
19279;DHT22;9773;47.062;15.446;2023-12-04T07:03:55;-3.20;99.90
19279;DHT22;9773;47.062;15.446;2023-12-04T07:06:27;-3.30;99.90
19279;DHT22;9773;47.062;15.446;2023-12-04T07:08:53;-2.50;99.90
19279;DHT22;9773;47.062;15.446;2023-12-04T07:11:19;-3.50;99.90
19279;DHT22;9773;47.062;15.446;2023-12-04T07:13:44;-1.10;99.90
19279;DHT22;9773;47.062;15.446;2023-12-04T07:16:10;-3.60;99.90
19279;DHT22;9773;47.062;15.446;2023-12-04T07:18:39;-3.70;99.90
19279;DHT22;9773;47.062;15.446;2023-12-04T07:21:05;-3.80;99.90
19279;DHT22;9773;47.062;15.446;2023-12-04T07:23:31;-3.80;99.90
19279;DHT22;9773;47.062;15.446;2023-12-04T07:25:56;-3.80;99.90
19279;DHT22;9773;47.062;15.446;2023-12-04T07:28:22;-3.90;99.90
19279;DHT22;9773;47.062;15.446;2023-12-04T07:30:49;-3.90;99.90
19279;DHT22;9773;47.062;15.446;2023-12-04T07:33:15;-3.90;99.90
19279;DHT22;9773;47.062;15.446;2023-12-04T07:35:41;-3.90;99.90
19279;DHT22;9773;47.062;15.446;2023-12-04T07:38:06;-3.90;99.90
19279;DHT22;9773;47.062;15.446;2023-12-04T07:40:32;-4.20;99.90
19279;DHT22;9773;47.062;15.446;2023-12-04T07:42:58;-4.50;99.90
19279;DHT22;9773;47.062;15.446;2023-12-04T07:45:24;-4.70;99.90
19279;DHT22;9773;47.062;15.446;2023-12-04T07:47:50;-4.70;99.90
19279;DHT22;9773;47.062;15.446;2023-12-04T07:50:16;-4.80;99.90
19279;DHT22;9773;47.062;15.446;2023-12-04T07:52:41;-4.70;99.90
19279;DHT22;9773;47.062;15.446;2023-12-04T07:55:08;-4.50;99.90
19279;DHT22;9773;47.062;15.446;2023-12-04T07:57:33;-4.50;99.90
19279;DHT22;9773;47.062;15.446;2023-12-04T07:59:59;-4.50;99.90
19279;DHT22;9773;47.062;15.446;2023-12-04T08:02:25;-4.60;99.90
19279;DHT22;9773;47.062;15.446;2023-12-04T08:04:50;-4.40;99.90
19279;DHT22;9773;47.062;15.446;2023-12-04T08:07:16;-4.30;99.90
19279;DHT22;9773;47.062;15.446;2023-12-04T08:09:42;-4.50;99.90
19279;DHT22;9773;47.062;15.446;2023-12-04T08:12:08;-4.50;99.90
19279;DHT22;9773;47.062;15.446;2023-12-04T08:14:34;-4.30;99.90
19279;DHT22;9773;47.062;15.446;2023-12-04T08:17:00;-4.10;99.90
19279;DHT22;9773;47.062;15.446;2023-12-04T08:19:25;-4.00;99.90
19279;DHT22;9773;47.062;15.446;2023-12-04T08:21:51;-4.00;99.90
19279;DHT22;9773;47.062;15.446;2023-12-04T08:24:17;-3.80;99.90
19279;DHT22;9773;47.062;15.446;2023-12-04T08:26:46;-3.70;99.90
19279;DHT22;9773;47.062;15.446;2023-12-04T08:29:15;-3.60;99.90
19279;DHT22;9773;47.062;15.446;2023-12-04T08:31:42;-3.60;99.90
19279;DHT22;9773;47.062;15.446;2023-12-04T08:34:08;-3.50;99.90
19279;DHT22;9773;47.062;15.446;2023-12-04T08:36:33;-3.40;99.90
19279;DHT22;9773;47.062;15.446;2023-12-04T08:38:59;-3.30;99.90
19279;DHT22;9773;47.062;15.446;2023-12-04T08:41:25;-3.30;99.90
19279;DHT22;9773;47.062;15.446;2023-12-04T08:43:56;-3.10;99.90
19279;DHT22;9773;47.062;15.446;2023-12-04T08:46:22;-3.10;99.90
19279;DHT22;9773;47.062;15.446;2023-12-04T08:48:47;-3.10;99.90
19279;DHT22;9773;47.062;15.446;2023-12-04T08:51:17;-3.00;99.90
19279;DHT22;9773;47.062;15.446;2023-12-04T08:53:43;-3.00;99.90
19279;DHT22;9773;47.062;15.446;2023-12-04T08:56:09;-3.00;99.90
19279;DHT22;9773;47.062;15.446;2023-12-04T08:58:36;-3.00;99.90
19279;DHT22;9773;47.062;15.446;2023-12-04T09:01:02;-2.90;99.90
19279;DHT22;9773;47.062;15.446;2023-12-04T09:03:29;-3.00;99.90
19279;DHT22;9773;47.062;15.446;2023-12-04T09:05:57;-3.10;99.90
19279;DHT22;9773;47.062;15.446;2023-12-04T09:08:23;-3.10;99.90
19279;DHT22;9773;47.062;15.446;2023-12-04T09:10:51;-3.00;99.90
19279;DHT22;9773;47.062;15.446;2023-12-04T09:13:17;-3.00;99.90
19279;DHT22;9773;47.062;15.446;2023-12-04T09:15:43;-2.80;99.90
19279;DHT22;9773;47.062;15.446;2023-12-04T09:18:08;-2.90;99.90
19279;DHT22;9773;47.062;15.446;2023-12-04T09:20:34;-2.70;99.90
19279;DHT22;9773;47.062;15.446;2023-12-04T09:23:00;-2.70;99.90
19279;DHT22;9773;47.062;15.446;2023-12-04T09:25:27;-2.60;99.90
19279;DHT22;9773;47.062;15.446;2023-12-04T09:27:53;-2.50;99.90
19279;DHT22;9773;47.062;15.446;2023-12-04T09:30:19;-2.60;99.90
19279;DHT22;9773;47.062;15.446;2023-12-04T09:32:45;-2.50;99.90
19279;DHT22;9773;47.062;15.446;2023-12-04T09:35:11;-2.40;99.90
19279;DHT22;9773;47.062;15.446;2023-12-04T09:37:37;-0.30;99.90
19279;DHT22;9773;47.062;15.446;2023-12-04T09:40:03;-2.20;99.90
19279;DHT22;9773;47.062;15.446;2023-12-04T09:42:30;-2.10;99.90
19279;DHT22;9773;47.062;15.446;2023-12-04T09:44:58;-2.00;99.90
19279;DHT22;9773;47.062;15.446;2023-12-04T09:47:24;-2.00;99.90
19279;DHT22;9773;47.062;15.446;2023-12-04T09:49:51;-1.90;99.90
19279;DHT22;9773;47.062;15.446;2023-12-04T09:52:19;-1.80;99.90
19279;DHT22;9773;47.062;15.446;2023-12-04T09:54:46;-1.80;99.90
19279;DHT22;9773;47.062;15.446;2023-12-04T09:57:12;-1.80;99.90
19279;DHT22;9773;47.062;15.446;2023-12-04T09:59:39;-2.00;99.90
19279;DHT22;9773;47.062;15.446;2023-12-04T10:02:05;-1.90;99.90
19279;DHT22;9773;47.062;15.446;2023-12-04T10:04:34;-1.80;99.90
19279;DHT22;9773;47.062;15.446;2023-12-04T10:07:01;-1.70;99.90
19279;DHT22;9773;47.062;15.446;2023-12-04T10:09:28;-1.70;99.90
19279;DHT22;9773;47.062;15.446;2023-12-04T10:11:56;-1.50;99.90
19279;DHT22;9773;47.062;15.446;2023-12-04T10:14:22;-1.50;99.90
19279;DHT22;9773;47.062;15.446;2023-12-04T10:16:49;-1.60;99.90
19279;DHT22;9773;47.062;15.446;2023-12-04T10:19:22;-1.60;99.90
19279;DHT22;9773;47.062;15.446;2023-12-04T10:21:58;-1.60;99.90
19279;DHT22;9773;47.062;15.446;2023-12-04T10:27:01;-1.10;99.90
19279;DHT22;9773;47.062;15.446;2023-12-04T10:29:28;-1.00;99.90
19279;DHT22;9773;47.062;15.446;2023-12-04T10:31:58;-0.80;99.90
19279;DHT22;9773;47.062;15.446;2023-12-04T10:34:25;-0.80;99.90
19279;DHT22;9773;47.062;15.446;2023-12-04T10:36:52;-0.70;99.90
19279;DHT22;9773;47.062;15.446;2023-12-04T10:39:21;-0.60;99.90
19279;DHT22;9773;47.062;15.446;2023-12-04T10:41:59;-0.60;99.90
19279;DHT22;9773;47.062;15.446;2023-12-04T10:44:26;-0.60;99.90
19279;DHT22;9773;47.062;15.446;2023-12-04T10:46:53;-0.50;99.90
19279;DHT22;9773;47.062;15.446;2023-12-04T10:49:19;-0.50;99.90
19279;DHT22;9773;47.062;15.446;2023-12-04T10:51:46;-0.50;99.90
19279;DHT22;9773;47.062;15.446;2023-12-04T10:54:11;-0.40;99.90
19279;DHT22;9773;47.062;15.446;2023-12-04T10:56:39;-0.30;99.90
19279;DHT22;9773;47.062;15.446;2023-12-04T10:59:14;-0.40;99.90
19279;DHT22;9773;47.062;15.446;2023-12-04T11:01:42;-0.20;99.90
19279;DHT22;9773;47.062;15.446;2023-12-04T11:04:16;-0.10;99.90
19279;DHT22;9773;47.062;15.446;2023-12-04T11:06:44;0.00;99.90
19279;DHT22;9773;47.062;15.446;2023-12-04T11:09:11;0.00;99.90
19279;DHT22;9773;47.062;15.446;2023-12-04T11:11:40;0.10;99.90
19279;DHT22;9773;47.062;15.446;2023-12-04T11:14:10;0.20;99.90
19279;DHT22;9773;47.062;15.446;2023-12-04T11:16:48;0.20;99.90
19279;DHT22;9773;47.062;15.446;2023-12-04T11:19:35;0.30;99.90
19279;DHT22;9773;47.062;15.446;2023-12-04T11:22:03;0.30;99.90
19279;DHT22;9773;47.062;15.446;2023-12-04T11:24:31;0.30;99.90
19279;DHT22;9773;47.062;15.446;2023-12-04T11:26:58;0.40;99.90
19279;DHT22;9773;47.062;15.446;2023-12-04T11:29:24;0.50;99.90
19279;DHT22;9773;47.062;15.446;2023-12-04T11:31:50;0.80;99.90
19279;DHT22;9773;47.062;15.446;2023-12-04T11:34:16;0.60;99.90
19279;DHT22;9773;47.062;15.446;2023-12-04T11:36:42;0.60;99.90
19279;DHT22;9773;47.062;15.446;2023-12-04T11:39:10;0.70;99.90
19279;DHT22;9773;47.062;15.446;2023-12-04T11:41:37;0.70;99.90
19279;DHT22;9773;47.062;15.446;2023-12-04T11:44:03;0.90;99.90
19279;DHT22;9773;47.062;15.446;2023-12-04T11:46:30;0.70;99.90
19279;DHT22;9773;47.062;15.446;2023-12-04T11:51:55;2.30;99.90
19279;DHT22;9773;47.062;15.446;2023-12-04T11:54:22;0.90;99.90
19279;DHT22;9773;47.062;15.446;2023-12-04T11:59:38;0.70;99.90
19279;DHT22;9773;47.062;15.446;2023-12-04T12:02:07;0.50;99.90
19279;DHT22;9773;47.062;15.446;2023-12-04T12:04:33;0.60;99.90
19279;DHT22;9773;47.062;15.446;2023-12-04T12:06:59;0.50;99.90
19279;DHT22;9773;47.062;15.446;2023-12-04T12:09:28;0.50;99.90
19279;DHT22;9773;47.062;15.446;2023-12-04T12:11:54;0.40;99.90
19279;DHT22;9773;47.062;15.446;2023-12-04T12:14:21;0.30;99.90
19279;DHT22;9773;47.062;15.446;2023-12-04T12:16:48;0.60;99.90
19279;DHT22;9773;47.062;15.446;2023-12-04T12:19:13;0.70;99.90
19279;DHT22;9773;47.062;15.446;2023-12-04T12:21:40;0.50;99.90
19279;DHT22;9773;47.062;15.446;2023-12-04T12:24:06;0.60;99.90
19279;DHT22;9773;47.062;15.446;2023-12-04T12:28:59;0.70;99.90
19279;DHT22;9773;47.062;15.446;2023-12-04T12:31:25;0.70;99.90
19279;DHT22;9773;47.062;15.446;2023-12-04T12:33:51;0.60;99.90
19279;DHT22;9773;47.062;15.446;2023-12-04T12:36:17;0.60;99.90
19279;DHT22;9773;47.062;15.446;2023-12-04T12:38:46;0.70;99.90
19279;DHT22;9773;47.062;15.446;2023-12-04T12:41:16;0.70;99.90
19279;DHT22;9773;47.062;15.446;2023-12-04T12:43:43;0.70;99.90
19279;DHT22;9773;47.062;15.446;2023-12-04T12:46:10;0.60;99.90
19279;DHT22;9773;47.062;15.446;2023-12-04T12:48:36;0.70;99.90
19279;DHT22;9773;47.062;15.446;2023-12-04T12:51:05;0.70;99.90
19279;DHT22;9773;47.062;15.446;2023-12-04T12:53:34;0.60;99.90
19279;DHT22;9773;47.062;15.446;2023-12-04T12:56:00;0.50;99.90
19279;DHT22;9773;47.062;15.446;2023-12-04T12:58:27;0.30;99.90
19279;DHT22;9773;47.062;15.446;2023-12-04T13:00:53;-0.10;99.90
19279;DHT22;9773;47.062;15.446;2023-12-04T13:03:19;0.00;99.90
19279;DHT22;9773;47.062;15.446;2023-12-04T13:05:45;0.10;99.90
19279;DHT22;9773;47.062;15.446;2023-12-04T13:08:12;0.00;99.90
19279;DHT22;9773;47.062;15.446;2023-12-04T13:10:38;0.00;99.90
19279;DHT22;9773;47.062;15.446;2023-12-04T13:13:04;-0.20;99.90
19279;DHT22;9773;47.062;15.446;2023-12-04T13:15:34;-0.30;99.90
19279;DHT22;9773;47.062;15.446;2023-12-04T13:18:00;-0.30;99.90
19279;DHT22;9773;47.062;15.446;2023-12-04T13:20:27;-0.30;99.90
19279;DHT22;9773;47.062;15.446;2023-12-04T13:22:53;-0.10;99.90
19279;DHT22;9773;47.062;15.446;2023-12-04T13:25:19;0.00;99.90
19279;DHT22;9773;47.062;15.446;2023-12-04T13:27:46;0.00;99.90
19279;DHT22;9773;47.062;15.446;2023-12-04T13:30:12;0.20;99.90
19279;DHT22;9773;47.062;15.446;2023-12-04T13:32:38;0.20;99.90
19279;DHT22;9773;47.062;15.446;2023-12-04T13:35:05;0.30;99.90
19279;DHT22;9773;47.062;15.446;2023-12-04T13:37:32;0.30;99.90
19279;DHT22;9773;47.062;15.446;2023-12-04T13:39:58;0.30;99.90
19279;DHT22;9773;47.062;15.446;2023-12-04T13:42:29;0.40;99.90
19279;DHT22;9773;47.062;15.446;2023-12-04T13:45:14;0.40;99.90
19279;DHT22;9773;47.062;15.446;2023-12-04T13:47:39;0.40;99.90
19279;DHT22;9773;47.062;15.446;2023-12-04T13:50:06;0.40;99.90
19279;DHT22;9773;47.062;15.446;2023-12-04T13:52:36;0.40;99.90
19279;DHT22;9773;47.062;15.446;2023-12-04T13:55:02;0.40;99.90
19279;DHT22;9773;47.062;15.446;2023-12-04T13:57:38;0.40;99.90
19279;DHT22;9773;47.062;15.446;2023-12-04T14:00:21;0.40;99.90
19279;DHT22;9773;47.062;15.446;2023-12-04T14:02:47;0.20;99.90
19279;DHT22;9773;47.062;15.446;2023-12-04T14:05:13;0.00;99.90
19279;DHT22;9773;47.062;15.446;2023-12-04T14:07:42;0.00;99.90
19279;DHT22;9773;47.062;15.446;2023-12-04T14:10:10;0.00;99.90
19279;DHT22;9773;47.062;15.446;2023-12-04T14:12:38;0.10;99.90
19279;DHT22;9773;47.062;15.446;2023-12-04T14:15:05;0.10;99.90
19279;DHT22;9773;47.062;15.446;2023-12-04T14:17:31;0.20;99.90
19279;DHT22;9773;47.062;15.446;2023-12-04T14:19:56;0.20;99.90
19279;DHT22;9773;47.062;15.446;2023-12-04T14:22:22;0.20;99.90
19279;DHT22;9773;47.062;15.446;2023-12-04T14:24:48;0.20;99.90
19279;DHT22;9773;47.062;15.446;2023-12-04T14:27:14;0.30;99.90
19279;DHT22;9773;47.062;15.446;2023-12-04T14:29:39;0.20;99.90
19279;DHT22;9773;47.062;15.446;2023-12-04T14:32:06;0.20;99.90
19279;DHT22;9773;47.062;15.446;2023-12-04T14:34:32;0.20;99.90
19279;DHT22;9773;47.062;15.446;2023-12-04T14:36:58;0.20;99.90
19279;DHT22;9773;47.062;15.446;2023-12-04T14:39:24;0.20;99.90
19279;DHT22;9773;47.062;15.446;2023-12-04T14:41:50;0.20;99.90
19279;DHT22;9773;47.062;15.446;2023-12-04T14:44:16;0.20;99.90
19279;DHT22;9773;47.062;15.446;2023-12-04T14:46:42;0.20;99.90
19279;DHT22;9773;47.062;15.446;2023-12-04T14:49:08;0.10;99.90
19279;DHT22;9773;47.062;15.446;2023-12-04T14:51:34;0.10;99.90
19279;DHT22;9773;47.062;15.446;2023-12-04T14:53:59;0.20;99.90
19279;DHT22;9773;47.062;15.446;2023-12-04T14:56:45;0.20;99.90
19279;DHT22;9773;47.062;15.446;2023-12-04T14:59:29;0.20;99.90
19279;DHT22;9773;47.062;15.446;2023-12-04T15:02:14;0.10;99.90
19279;DHT22;9773;47.062;15.446;2023-12-04T15:04:58;0.10;99.90
19279;DHT22;9773;47.062;15.446;2023-12-04T15:07:29;0.10;99.90
19279;DHT22;9773;47.062;15.446;2023-12-04T15:10:12;0.10;99.90
19279;DHT22;9773;47.062;15.446;2023-12-04T15:12:38;0.10;99.90
19279;DHT22;9773;47.062;15.446;2023-12-04T15:15:18;0.10;99.90
19279;DHT22;9773;47.062;15.446;2023-12-04T15:18:04;0.10;99.90
19279;DHT22;9773;47.062;15.446;2023-12-04T15:20:49;0.20;99.90
19279;DHT22;9773;47.062;15.446;2023-12-04T15:23:15;0.20;99.90
19279;DHT22;9773;47.062;15.446;2023-12-04T15:25:42;0.20;99.90
19279;DHT22;9773;47.062;15.446;2023-12-04T15:28:08;0.20;99.90
19279;DHT22;9773;47.062;15.446;2023-12-04T15:30:34;0.20;99.90
19279;DHT22;9773;47.062;15.446;2023-12-04T15:33:00;0.20;99.90
19279;DHT22;9773;47.062;15.446;2023-12-04T15:35:26;0.20;99.90
19279;DHT22;9773;47.062;15.446;2023-12-04T15:37:51;0.20;99.90
19279;DHT22;9773;47.062;15.446;2023-12-04T15:40:17;0.20;99.90
19279;DHT22;9773;47.062;15.446;2023-12-04T15:42:43;0.20;99.90
19279;DHT22;9773;47.062;15.446;2023-12-04T15:45:09;0.20;99.90